Time;durP1;ratioP1;P1;durP2;ratioP2;P2;SDS_P1;SDS_P2;PMS_P1;PMS_P2;Temp;Humidity;BMP_temperature;BMP_pressure;BME280_temperature;BME280_humidity;BME280_pressure;Samples;Min_cycle;Max_cycle;Signal;HPM_P1;HPM_P2
2024/01/20 00:02:18;;;;;;;11.80;3.20;;;17.00;50.90;;;;;;4980055;28;20159;-84
2024/01/20 00:04:47;;;;;;;15.30;2.90;;;17.00;51.20;;;;;;5011995;28;20790;-85
2024/01/20 00:07:15;;;;;;;16.35;3.35;;;17.00;51.30;;;;;;4995605;28;20179;-85
2024/01/20 00:10:12;;;;;;;;;;;;;;;;;;;;;
2024/01/20 00:13:01;;;;;;;10.32;2.78;;;17.00;51.20;;;;;;4953842;29;20768;-84
2024/01/20 00:15:33;;;;;;;12.65;3.38;;;17.00;51.20;;;;;;4919794;29;20237;-83
2024/01/20 00:18:03;;;;;;;13.02;3.22;;;17.00;51.20;;;;;;4933885;29;20210;-84
2024/01/20 00:20:29;;;;;;;13.20;3.05;;;17.00;51.20;;;;;;4919192;29;20198;-84
2024/01/20 00:22:55;;;;;;;14.18;3.28;;;17.00;51.10;;;;;;4924968;29;20187;-84
2024/01/20 00:25:29;;;;;;;12.65;2.95;;;17.00;51.10;;;;;;4934492;29;20186;-84
2024/01/20 00:28:00;;;;;;;11.85;3.20;;;17.00;51.10;;;;;;4917682;29;20217;-85
2024/01/20 00:32:56;;;;;;;9.93;3.08;;;17.00;51.30;;;;;;5174478;23;20234;-84
2024/01/20 00:35:23;;;;;;;11.13;3.10;;;17.00;51.30;;;;;;4978926;28;20275;-83
2024/01/20 00:37:56;;;;;;;15.68;3.63;;;17.00;51.30;;;;;;4979988;28;20164;-84
2024/01/20 00:40:24;;;;;;;11.55;3.35;;;16.90;51.50;;;;;;4984383;28;20207;-84
2024/01/20 00:42:50;;;;;;;10.07;3.28;;;16.90;51.60;;;;;;5012961;28;20511;-83
2024/01/20 00:45:20;;;;;;;14.55;3.03;;;16.90;51.20;;;;;;5012566;28;20218;-83
2024/01/20 00:47:53;;;;;;;13.27;3.22;;;16.80;51.30;;;;;;5012520;28;20179;-83
2024/01/20 00:50:31;;;;;;;14.13;3.22;;;16.90;51.40;;;;;;5012562;28;20179;-86
2024/01/20 00:53:02;;;;;;;13.10;3.53;;;16.90;51.20;;;;;;5012685;28;20163;-85
2024/01/20 00:55:36;;;;;;;14.98;3.40;;;16.90;51.20;;;;;;4995266;28;20215;-83
2024/01/20 00:58:02;;;;;;;16.75;3.55;;;17.00;51.30;;;;;;5011576;28;20171;-83
2024/01/20 01:00:31;;;;;;;11.35;3.40;;;16.90;51.30;;;;;;5011778;28;20164;-84
2024/01/20 01:03:07;;;;;;;11.25;3.13;;;16.90;51.30;;;;;;4948533;29;20688;-83
2024/01/20 01:05:34;;;;;;;17.80;3.67;;;16.90;51.30;;;;;;4934181;29;20185;-84
2024/01/20 01:08:01;;;;;;;12.32;3.17;;;16.90;51.40;;;;;;4933848;29;20177;-84
2024/01/20 01:10:30;;;;;;;13.85;3.28;;;17.00;51.20;;;;;;4948746;29;20174;-84
2024/01/20 01:13:27;;;;;;;12.38;3.15;;;16.90;51.00;;;;;;4933010;29;20190;-84
2024/01/20 01:16:26;;;;;;;;;;;;;;;;;;;;;
2024/01/20 01:18:52;;;;;;;10.43;3.40;;;16.90;51.90;;;;;;4887112;29;20297;-84
2024/01/20 01:21:24;;;;;;;12.30;2.97;;;16.90;51.40;;;;;;4930160;29;20186;-85
2024/01/20 01:24:30;;;;;;;11.15;3.03;;;16.90;51.00;;;;;;4932087;29;20248;-84
2024/01/20 01:27:01;;;;;;;12.63;4.05;;;16.90;50.90;;;;;;4901426;29;20178;-83
2024/01/20 01:29:27;;;;;;;8.82;3.05;;;16.90;51.30;;;;;;4931412;29;20183;-84
2024/01/20 01:31:55;;;;;;;13.45;2.90;;;16.90;51.20;;;;;;4930629;29;20320;-82
2024/01/20 01:34:22;;;;;;;9.55;2.92;;;16.90;51.20;;;;;;4971179;28;20227;-84
2024/01/20 01:36:51;;;;;;;11.60;2.92;;;16.90;51.30;;;;;;4992712;28;20173;-83
2024/01/20 01:39:17;;;;;;;11.90;3.47;;;16.80;51.20;;;;;;4971878;28;20181;-84
2024/01/20 02:18:48;;;;;;;8.52;2.95;;;16.80;51.30;;;;;;5784948;22;20288;-83
2024/01/20 02:21:18;;;;;;;16.95;3.60;;;16.80;51.40;;;;;;4975298;28;20176;-84
2024/01/20 02:23:46;;;;;;;7.65;3.25;;;16.80;51.50;;;;;;4974552;28;20152;-84
2024/01/20 02:26:17;;;;;;;11.30;3.38;;;16.80;51.50;;;;;;4954971;28;20203;-84
2024/01/20 02:28:43;;;;;;;12.43;3.47;;;16.80;51.30;;;;;;4971886;28;20179;-83
2024/01/20 02:31:11;;;;;;;10.48;3.20;;;16.90;51.00;;;;;;4954731;28;20176;-83
2024/01/20 02:33:37;;;;;;;9.63;2.85;;;16.80;51.20;;;;;;4955006;28;20169;-84
2024/01/20 02:36:05;;;;;;;8.70;2.83;;;16.80;51.10;;;;;;4955560;28;20196;-84
2024/01/20 02:38:32;;;;;;;10.18;3.40;;;16.80;51.10;;;;;;4974822;28;20188;-85
2024/01/20 03:01:35;;;;;;;9.30;3.17;;;16.70;51.20;;;;;;5091255;23;20249;-83
2024/01/20 03:04:01;;;;;;;9.02;2.90;;;16.80;51.50;;;;;;4994761;28;20199;-83
2024/01/20 03:06:28;;;;;;;7.70;2.75;;;16.70;51.50;;;;;;4993877;28;20163;-83
2024/01/20 03:08:57;;;;;;;8.55;3.05;;;16.70;51.50;;;;;;4935107;29;20189;-83
2024/01/20 03:11:23;;;;;;;12.65;3.40;;;16.70;51.60;;;;;;4950921;29;20302;-83
2024/01/20 03:13:55;;;;;;;9.23;3.03;;;16.60;51.60;;;;;;4918500;29;20177;-83
2024/01/20 03:34:32;;;;;;;10.77;2.95;;;16.70;51.50;;;;;;5670228;22;20243;-87
2024/01/20 03:37:07;;;;;;;10.75;2.83;;;16.70;51.40;;;;;;4975737;28;20202;-83
2024/01/20 03:39:33;;;;;;;8.27;3.05;;;16.70;51.40;;;;;;4993628;28;20211;-83
2024/01/20 03:41:59;;;;;;;5.43;2.55;;;16.70;51.20;;;;;;4972705;28;20181;-84
2024/01/20 03:44:28;;;;;;;9.40;3.28;;;16.70;51.20;;;;;;4973323;28;20185;-83
2024/01/20 03:46:54;;;;;;;8.10;2.97;;;16.80;51.00;;;;;;4972839;28;20260;-84
2024/01/20 03:49:29;;;;;;;9.27;3.20;;;16.70;51.30;;;;;;4972427;28;20185;-84
2024/01/20 03:51:57;;;;;;;7.93;3.13;;;16.70;51.30;;;;;;4972969;28;20179;-84
2024/01/20 04:04:12;;;;;;;6.68;3.20;;;16.70;51.40;;;;;;5027408;28;20218;-85
2024/01/20 04:24:47;;;;;;;7.15;3.08;;;16.60;51.60;;;;;;5274592;23;20235;-83
2024/01/20 04:27:13;;;;;;;8.43;2.85;;;16.60;51.50;;;;;;4976393;28;20200;-84
2024/01/20 05:25:03;;;;;;;7.22;3.17;;;16.70;51.30;;;;;;4770778;23;20236;-84
2024/01/20 05:27:37;;;;;;;9.63;3.03;;;16.70;51.20;;;;;;4949667;29;20193;-85
2024/01/20 05:30:06;;;;;;;8.10;2.85;;;16.70;50.90;;;;;;4932629;29;20265;-84
2024/01/20 05:58:21;;;;;;;10.07;3.40;;;16.80;50.90;;;;;;4946090;29;20206;-84
2024/01/20 06:00:59;;;;;;;5.38;2.67;;;16.80;50.60;;;;;;4893018;29;20562;-84
2024/01/20 06:03:32;;;;;;;8.90;3.20;;;16.80;50.70;;;;;;4893635;29;20178;-84
2024/01/20 06:06:00;;;;;;;10.65;2.67;;;16.80;50.60;;;;;;4891892;29;20188;-83
2024/01/20 06:08:29;;;;;;;6.38;3.30;;;16.90;50.60;;;;;;4860000;29;20680;-84
2024/01/20 06:32:16;;;;;;;7.05;3.10;;;16.80;50.70;;;;;;4969747;23;20229;-85
2024/01/20 06:34:42;;;;;;;6.63;3.03;;;17.00;50.60;;;;;;4892215;29;20281;-82
2024/01/20 06:37:13;;;;;;;10.90;2.88;;;16.90;50.80;;;;;;4892507;29;20281;-84
2024/01/20 06:39:45;;;;;;;6.38;2.75;;;16.80;50.80;;;;;;4874895;29;20187;-83
2024/01/20 06:42:13;;;;;;;7.65;2.78;;;16.90;50.70;;;;;;4885956;29;20191;-82
2024/01/20 06:44:50;;;;;;;6.18;2.72;;;17.00;50.60;;;;;;4879124;29;20692;-85
2024/01/20 06:47:17;;;;;;;8.52;3.15;;;16.90;50.60;;;;;;4855151;29;20324;-84
2024/01/20 06:49:49;;;;;;;5.80;2.85;;;17.00;50.70;;;;;;4873525;29;20320;-82
2024/01/20 06:52:20;;;;;;;5.57;2.72;;;17.00;50.50;;;;;;4894600;29;20674;-81
2024/01/20 06:54:49;;;;;;;6.60;2.70;;;17.10;50.50;;;;;;4882381;29;20223;-80
2024/01/20 06:57:16;;;;;;;7.57;3.05;;;17.00;50.60;;;;;;4893618;29;20208;-81
2024/01/20 06:59:43;;;;;;;9.75;2.80;;;17.10;50.50;;;;;;4895980;29;20180;-82
2024/01/20 07:02:13;;;;;;;9.00;3.20;;;16.90;50.50;;;;;;4891343;29;20195;-83
2024/01/20 07:04:46;;;;;;;6.25;2.78;;;16.90;50.50;;;;;;4876312;29;20191;-81
2024/01/20 07:07:14;;;;;;;7.30;2.50;;;17.00;50.70;;;;;;4871544;29;20198;-84
2024/01/20 07:09:41;;;;;;;5.28;2.45;;;16.90;50.70;;;;;;4872616;29;20192;-82
2024/01/20 07:12:29;;;;;;;;;;;;;;;;;;;;;
2024/01/20 07:15:23;;;;;;;;;;;;;;;;;;;;;
2024/01/20 07:17:57;;;;;;;7.75;3.13;;;17.00;50.60;;;;;;4852272;29;20246;-84
2024/01/20 07:20:40;;;;;;;8.00;2.75;;;17.00;50.70;;;;;;4821473;29;20254;-84
2024/01/20 07:23:18;;;;;;;6.50;2.83;;;17.00;50.80;;;;;;4778524;29;20186;-81
2024/01/20 07:25:59;;;;;;;10.80;3.15;;;17.00;50.80;;;;;;4805447;29;20197;-83
2024/01/20 07:28:39;;;;;;;4.82;2.95;;;17.00;50.50;;;;;;4791635;29;20223;-84
2024/01/20 07:31:08;;;;;;;5.97;3.10;;;17.00;50.50;;;;;;4785254;30;20252;-85
2024/01/20 07:33:54;;;;;;;;;;;;;;;;;;;;;
2024/01/20 07:36:43;;;;;;;9.73;3.05;;;17.10;50.60;;;;;;4789707;29;20257;-86
2024/01/20 07:39:53;;;;;;;;;;;;;;;;;;;;;
